createdAt,value
2022-08-05T00:00:18.582Z,97761.75
2022-08-05T00:02:50.406Z,97757.50
2022-08-05T00:05:27.485Z,97765.13
2022-08-05T00:08:34.094Z,97758.78
2022-08-05T00:11:00.994Z,97754.69
2022-08-05T00:13:39.052Z,97750.78
2022-08-05T00:16:12.153Z,97749.75
2022-08-05T00:18:44.261Z,97752.63
2022-08-05T00:21:15.404Z,97758.97
2022-08-05T00:23:53.547Z,97767.00
2022-08-05T00:26:34.787Z,97764.16
2022-08-05T00:29:03.266Z,97761.94
2022-08-05T00:31:53.807Z,97772.38
2022-08-05T00:34:54.815Z,97767.28
2022-08-05T00:37:14.210Z,97775.22
2022-08-05T00:39:57.092Z,97774.00
2022-08-05T00:42:33.533Z,97776.47
2022-08-05T00:45:02.423Z,97779.28
2022-08-05T00:47:56.676Z,97792.28
2022-08-05T00:50:21.112Z,97796.34
2022-08-05T00:52:55.563Z,97804.44
2022-08-05T00:55:34.163Z,97815.63
2022-08-05T00:58:11.907Z,97811.78
2022-08-05T01:00:42.436Z,97828.16
2022-08-05T01:03:22.723Z,97834.06
2022-08-05T01:05:54.474Z,97835.09
2022-08-05T01:08:40.148Z,97850.59
2022-08-05T01:11:22.458Z,97842.44
2022-08-05T01:14:08.974Z,97845.94
2022-08-05T01:16:47.075Z,97845.28
2022-08-05T01:19:30.109Z,97837.53
2022-08-05T01:22:38.730Z,97850.50
2022-08-05T01:25:39.716Z,97864.97
2022-08-05T01:28:27.859Z,97860.69
2022-08-05T01:31:00.889Z,97857.38
2022-08-05T01:33:36.906Z,97854.50
2022-08-05T01:36:13.099Z,97867.16
2022-08-05T01:38:48.460Z,97865.09
2022-08-05T01:41:22.684Z,97870.78
2022-08-05T01:43:57.588Z,97874.91
2022-08-05T01:46:41.910Z,97887.50
2022-08-05T01:49:23.949Z,97899.13
2022-08-05T01:51:58.813Z,97897.25
2022-08-05T01:54:33.432Z,97896.19
2022-08-05T01:58:13.648Z,97904.53
2022-08-05T01:59:59.694Z,97901.88
2022-08-05T02:02:31.148Z,97905.72
2022-08-05T02:05:05.040Z,97896.09
2022-08-05T02:07:43.101Z,97898.13
2022-08-05T02:10:36.015Z,97889.94
2022-08-05T02:13:16.348Z,97884.22
2022-08-05T02:15:51.338Z,97889.25
2022-08-05T02:18:31.137Z,97888.59
2022-08-05T02:21:15.283Z,97887.78
2022-08-05T02:23:48.606Z,97885.94
2022-08-05T02:26:22.951Z,97884.31
2022-08-05T02:28:58.133Z,97886.31
2022-08-05T02:31:34.764Z,97887.88
2022-08-05T02:34:09.309Z,97898.03
2022-08-05T02:36:43.109Z,97899.59
2022-08-05T02:39:12.111Z,97893.50
2022-08-05T02:42:00.419Z,97893.50
2022-08-05T02:44:32.104Z,97897.16
2022-08-05T02:47:03.492Z,97899.56
2022-08-05T02:49:40.399Z,97905.59
2022-08-05T02:52:13.656Z,97901.91
2022-08-05T02:54:55.935Z,97896.53
2022-08-05T02:58:11.667Z,97902.56
2022-08-05T03:00:15.626Z,97895.66
2022-08-05T03:02:49.679Z,97898.06
2022-08-05T03:05:21.699Z,97899.94
2022-08-05T03:08:11.933Z,97899.38
2022-08-05T03:10:44.778Z,97905.41
2022-08-05T03:13:51.965Z,97909.84
2022-08-05T03:16:22.631Z,97923.28
2022-08-05T03:18:52.727Z,97927.28
2022-08-05T03:21:21.335Z,97935.34
2022-08-05T03:23:52.148Z,97931.06
2022-08-05T03:26:31.322Z,97936.25
2022-08-05T03:29:01.121Z,97936.53
2022-08-05T03:31:55.827Z,97940.63
2022-08-05T03:34:21.228Z,97941.28
2022-08-05T03:36:52.954Z,97936.16
2022-08-05T03:39:27.061Z,97937.00
2022-08-05T03:41:56.601Z,97936.53
2022-08-05T03:44:25.597Z,97932.44
2022-08-05T03:46:57.588Z,97933.50
2022-08-05T03:49:31.167Z,97940.13
2022-08-05T03:52:38.383Z,97934.03
2022-08-05T03:56:04.361Z,97921.94
2022-08-05T03:58:15.636Z,97915.31
2022-08-05T04:00:55.161Z,97906.00
2022-08-05T04:03:28.422Z,97905.66
2022-08-05T04:05:59.946Z,97915.88
2022-08-05T04:08:36.059Z,97916.69
2022-08-05T04:11:08.668Z,97915.22
2022-08-05T04:13:49.915Z,97921.50
2022-08-05T04:16:24.979Z,97920.59
2022-08-05T04:18:54.929Z,97926.88
2022-08-05T04:22:08.789Z,97924.28
2022-08-05T04:24:19.489Z,97921.81
2022-08-05T04:26:51.356Z,97927.91
2022-08-05T04:29:19.949Z,97943.50
2022-08-05T04:31:49.735Z,97975.72
2022-08-05T04:34:32.706Z,97997.31
2022-08-05T04:37:04.907Z,98004.28
2022-08-05T04:39:35.282Z,98027.09
2022-08-05T04:42:04.562Z,98030.41
2022-08-05T04:44:32.988Z,98039.13
2022-08-05T04:47:08.811Z,98047.88
2022-08-05T04:50:02.886Z,98050.81
2022-08-05T04:52:33.317Z,98061.78
2022-08-05T04:55:13.794Z,98075.69
2022-08-05T04:57:47.727Z,98077.81
2022-08-05T05:00:23.306Z,98070.16
2022-08-05T05:02:52.933Z,98071.38
2022-08-05T05:05:28.125Z,98086.84
2022-08-05T05:08:03.784Z,98112.72
2022-08-05T05:10:35.184Z,98129.56
2022-08-05T05:13:04.128Z,98145.91
2022-08-05T05:15:59.096Z,98134.25
2022-08-05T05:18:30.967Z,98130.94
2022-08-05T05:21:04.244Z,98141.34
2022-08-05T05:24:02.310Z,98158.34
2022-08-05T05:26:28.879Z,98155.72
2022-08-05T05:29:02.723Z,98145.44
2022-08-05T05:31:46.541Z,98150.09
2022-08-05T05:34:15.453Z,98156.00
2022-08-05T05:36:44.116Z,98157.50
2022-08-05T05:39:19.340Z,98154.66
2022-08-05T05:41:54.264Z,98163.59
2022-08-05T05:44:36.789Z,98168.69
2022-08-05T05:47:21.571Z,98163.59
2022-08-05T05:49:56.453Z,98181.88
2022-08-05T05:52:28.488Z,98176.97
2022-08-05T05:55:07.510Z,98186.34
2022-08-05T05:57:52.936Z,98196.38
2022-08-05T06:00:31.465Z,98188.13
2022-08-05T06:03:01.873Z,98195.22
2022-08-05T06:05:31.950Z,98201.16
2022-08-05T06:08:02.193Z,98204.44
2022-08-05T06:10:34.477Z,98198.50
2022-08-05T06:13:05.921Z,98203.78
2022-08-05T06:16:30.748Z,98203.06
2022-08-05T06:18:31.025Z,98206.19
2022-08-05T06:21:01.177Z,98197.44
2022-08-05T06:23:43.858Z,98198.59
2022-08-05T06:26:21.386Z,98190.16
2022-08-05T06:28:52.438Z,98188.81
2022-08-05T06:31:22.146Z,98188.09
2022-08-05T06:34:07.881Z,98169.63
2022-08-05T06:36:57.565Z,98165.63
2022-08-05T06:39:26.791Z,98185.28
2022-08-05T06:41:58.969Z,98192.19
2022-08-05T06:44:28.374Z,98189.38
2022-08-05T06:46:57.040Z,98182.91
2022-08-05T06:50:01.095Z,98180.94
2022-08-05T06:52:38.106Z,98181.22
2022-08-05T06:55:03.855Z,98172.13
2022-08-05T06:58:03.281Z,98180.00
2022-08-05T07:00:25.052Z,98189.56
2022-08-05T07:02:54.661Z,98194.78
2022-08-05T07:05:31.823Z,98187.13
2022-08-05T07:08:10.980Z,98201.69
2022-08-05T07:10:53.140Z,98201.69
2022-08-05T07:13:58.427Z,98206.97
2022-08-05T07:17:58.749Z,98222.84
2022-08-05T07:22:28.482Z,98233.91
2022-08-05T07:25:23.515Z,98238.03
2022-08-05T07:27:58.720Z,98240.31
2022-08-05T07:30:34.266Z,98229.00
2022-08-05T07:33:05.486Z,98237.88
2022-08-05T07:36:03.568Z,98236.88
2022-08-05T07:38:34.378Z,98237.19
2022-08-05T07:41:35.168Z,98235.34
2022-08-05T07:43:56.139Z,98243.13
2022-08-05T07:46:28.251Z,98241.13
2022-08-05T07:49:01.452Z,98233.22
2022-08-05T07:51:37.175Z,98234.50
2022-08-05T07:54:11.447Z,98235.50
2022-08-05T07:57:01.878Z,98230.22
2022-08-05T07:59:31.020Z,98236.94
2022-08-05T08:02:16.704Z,98239.72
2022-08-05T08:04:49.897Z,98235.44
2022-08-05T08:07:22.428Z,98239.00
2022-08-05T08:09:54.899Z,98232.34
2022-08-05T08:12:32.004Z,98242.53
2022-08-05T08:15:15.038Z,98232.53
2022-08-05T08:17:52.585Z,98235.19
2022-08-05T08:20:59.778Z,98238.38
2022-08-05T08:24:03.403Z,98240.84
2022-08-05T08:26:02.839Z,98239.66
2022-08-05T08:28:36.566Z,98240.94
2022-08-05T08:31:14.994Z,98237.09
2022-08-05T08:33:51.413Z,98238.47
2022-08-05T08:36:29.409Z,98231.63
2022-08-05T08:39:14.971Z,98227.97
2022-08-05T08:41:50.590Z,98226.13
2022-08-05T08:45:24.143Z,98224.44
2022-08-05T08:47:21.793Z,98212.94
2022-08-05T08:50:12.970Z,98206.00
2022-08-05T08:52:55.866Z,98201.97
2022-08-05T08:56:02.519Z,98197.59
2022-08-05T08:58:16.920Z,98197.84
2022-08-05T09:00:45.559Z,98202.41
2022-08-05T09:03:16.323Z,98197.09
2022-08-05T09:06:08.616Z,98193.31
2022-08-05T09:08:40.431Z,98194.97
2022-08-05T09:11:13.586Z,98191.75
2022-08-05T09:14:09.418Z,98193.84
2022-08-05T09:16:32.513Z,98188.16
2022-08-05T09:19:01.006Z,98170.69
2022-08-05T09:22:23.205Z,98172.25
2022-08-05T09:24:25.390Z,98170.13
2022-08-05T09:26:59.429Z,98162.44
2022-08-05T09:29:44.766Z,98167.38
2022-08-05T09:32:42.126Z,98147.63
2022-08-05T09:35:26.659Z,98151.16
2022-08-05T09:38:16.802Z,98153.69
2022-08-05T09:40:52.357Z,98148.00
2022-08-05T09:43:41.139Z,98145.81
2022-08-05T09:46:28.441Z,98146.03
2022-08-05T09:49:07.093Z,98139.31
2022-08-05T09:51:41.286Z,98140.81
2022-08-05T09:54:11.623Z,98138.38
2022-08-05T09:56:51.596Z,98142.06
2022-08-05T09:59:27.415Z,98142.50
2022-08-05T10:01:59.046Z,98144.41
2022-08-05T10:04:38.463Z,98137.72
2022-08-05T10:07:20.964Z,98140.16
2022-08-05T10:10:14.108Z,98133.72
2022-08-05T10:12:50.416Z,98138.22
2022-08-05T10:15:25.984Z,98141.50
2022-08-05T10:18:12.362Z,98130.91
2022-08-05T10:20:47.934Z,98123.16
2022-08-05T10:23:34.388Z,98129.91
2022-08-05T10:26:14.225Z,98124.41
2022-08-05T10:28:45.128Z,98135.50
2022-08-05T10:32:54.988Z,98128.13
2022-08-05T10:34:07.966Z,98131.25
2022-08-05T10:36:38.173Z,98124.53
2022-08-05T10:39:15.264Z,98124.94
2022-08-05T10:42:03.284Z,98121.72
2022-08-05T10:44:33.372Z,98131.75
2022-08-05T10:47:26.596Z,98126.69
2022-08-05T10:50:31.873Z,98119.09
2022-08-05T10:52:59.784Z,98122.59
2022-08-05T10:55:30.490Z,98123.25
2022-08-05T10:58:14.973Z,98122.22
2022-08-05T11:00:55.400Z,98120.78
2022-08-05T11:03:33.685Z,98121.22
2022-08-05T11:06:15.754Z,98115.28
2022-08-05T11:09:17.183Z,98116.56
2022-08-05T11:11:52.849Z,98118.41
2022-08-05T11:14:57.369Z,98114.97
2022-08-05T11:18:07.390Z,98117.84
2022-08-05T11:20:44.039Z,98117.41
2022-08-05T11:24:02.907Z,98122.94
2022-08-05T11:26:28.626Z,98123.38
2022-08-05T11:29:06.568Z,98129.72
2022-08-05T11:31:57.608Z,98126.00
2022-08-05T11:34:50.985Z,98129.28
2022-08-05T11:38:28.680Z,98127.44
2022-08-05T11:41:14.225Z,98117.84
2022-08-05T11:44:04.552Z,98120.50
2022-08-05T11:47:09.218Z,98117.41
2022-08-05T11:49:29.476Z,98112.25
2022-08-05T11:52:11.431Z,98100.94
2022-08-05T11:54:41.342Z,98102.16
2022-08-05T11:57:24.966Z,98111.56
2022-08-05T11:59:54.713Z,98097.34
2022-08-05T12:02:30.601Z,98098.16
2022-08-05T12:05:07.454Z,98101.22
2022-08-05T12:08:07.310Z,98093.84
2022-08-05T12:10:45.206Z,98091.97
2022-08-05T12:13:28.141Z,98097.75
2022-08-05T12:16:14.840Z,98090.34
2022-08-05T12:18:48.961Z,98093.09
2022-08-05T12:21:26.973Z,98086.06
2022-08-05T12:24:07.337Z,98078.53
2022-08-05T12:26:38.771Z,98082.84
2022-08-05T12:29:09.833Z,98091.38
2022-08-05T12:31:53.520Z,98081.31
2022-08-05T12:34:28.350Z,98076.59
2022-08-05T12:37:00.491Z,98079.78
2022-08-05T12:39:37.527Z,98081.78
2022-08-05T12:42:14.971Z,98077.66
2022-08-05T12:44:44.394Z,98072.53
2022-08-05T12:47:17.123Z,98064.97
2022-08-05T12:50:03.065Z,98063.44
2022-08-05T12:52:42.634Z,98064.41
2022-08-05T12:55:25.100Z,98066.84
2022-08-05T12:58:50.347Z,98066.00
2022-08-05T13:01:59.858Z,98054.00
2022-08-05T13:03:42.448Z,98068.78
2022-08-05T13:06:18.216Z,98056.84
2022-08-05T13:08:50.759Z,98061.94
2022-08-05T13:11:25.656Z,98060.06
2022-08-05T13:14:25.095Z,98059.72
2022-08-05T13:17:11.215Z,98062.56
2022-08-05T13:19:52.813Z,98057.44
2022-08-05T13:22:29.607Z,98052.34
2022-08-05T13:25:05.845Z,98056.06
2022-08-05T13:27:39.286Z,98045.75
2022-08-05T13:30:34.837Z,98043.78
2022-08-05T13:33:01.446Z,98044.16
2022-08-05T13:35:47.286Z,98048.16
2022-08-05T13:38:30.704Z,98045.53
2022-08-05T13:41:04.815Z,98047.41
2022-08-05T13:43:45.446Z,98035.41
2022-08-05T13:46:37.907Z,98030.19
2022-08-05T13:49:12.771Z,98020.22
2022-08-05T13:51:46.558Z,98022.56
2022-08-05T13:54:17.212Z,98024.94
2022-08-05T13:56:51.994Z,98024.34
2022-08-05T13:59:24.337Z,98025.88
2022-08-05T14:01:57.528Z,98018.09
2022-08-05T14:04:49.910Z,98017.69
2022-08-05T14:07:26.362Z,98011.53
2022-08-05T14:10:13.857Z,98020.41
2022-08-05T14:12:49.135Z,98016.56
2022-08-05T14:16:08.432Z,98017.00
2022-08-05T14:18:15.063Z,98008.25
2022-08-05T14:20:48.465Z,98014.97
2022-08-05T14:23:23.813Z,98020.34
2022-08-05T14:25:58.174Z,98013.91
2022-08-05T14:28:29.498Z,98018.22
2022-08-05T14:30:58.413Z,98012.28
2022-08-05T14:33:26.908Z,98011.16
2022-08-05T14:35:55.429Z,98016.03
2022-08-05T14:38:32.714Z,98015.97
2022-08-05T14:41:06.794Z,98023.84
2022-08-05T14:44:02.083Z,98025.47
2022-08-05T14:46:29.605Z,98032.34
2022-08-05T14:49:06.844Z,98033.09
2022-08-05T14:51:37.965Z,98040.66
2022-08-05T14:54:27.800Z,98027.75
2022-08-05T14:56:56.437Z,98030.53
2022-08-05T14:59:29.794Z,98037.75
2022-08-05T15:02:14.968Z,98036.00
2022-08-05T15:04:44.952Z,98038.56
2022-08-05T15:08:06.363Z,98036.56
2022-08-05T15:10:09.782Z,98044.31
2022-08-05T15:12:58.040Z,98060.34
2022-08-05T15:15:55.340Z,98061.25
2022-08-05T15:18:17.781Z,98075.53
2022-08-05T15:20:46.187Z,98113.72
2022-08-05T15:23:15.650Z,98153.00
2022-08-05T15:25:52.619Z,98122.84
2022-08-05T15:28:27.620Z,98073.94
2022-08-05T15:30:58.081Z,98089.53
2022-08-05T15:34:04.945Z,98092.41
2022-08-05T15:36:17.277Z,98098.81
2022-08-05T15:40:41.196Z,98095.59
2022-08-05T15:41:55.455Z,98093.53
2022-08-05T15:44:25.808Z,98097.47
2022-08-05T15:46:57.830Z,98100.25
2022-08-05T15:49:55.173Z,98105.03
2022-08-05T15:52:29.610Z,98110.03
2022-08-05T15:55:03.663Z,98105.31
2022-08-05T15:57:34.546Z,98111.78
2022-08-05T16:00:03.482Z,98106.06
2022-08-05T16:02:34.955Z,98103.84
2022-08-05T16:05:03.496Z,98103.72
2022-08-05T16:07:34.214Z,98095.34
2022-08-05T16:10:04.211Z,98089.03
2022-08-05T16:12:32.897Z,98096.91
2022-08-05T16:15:02.668Z,98108.44
2022-08-05T16:17:31.320Z,98110.47
2022-08-05T16:20:11.006Z,98098.59
2022-08-05T16:22:40.643Z,98116.22
2022-08-05T16:25:10.676Z,98117.13
2022-08-05T16:28:00.512Z,98112.03
2022-08-05T16:30:30.860Z,98115.59
2022-08-05T16:33:01.607Z,98130.88
2022-08-05T16:35:33.453Z,98134.75
2022-08-05T16:38:24.167Z,98140.69
2022-08-05T16:40:55.245Z,98129.78
2022-08-05T16:43:25.347Z,98138.31
2022-08-05T16:46:07.730Z,98142.53
2022-08-05T16:48:45.024Z,98145.91
2022-08-05T16:51:16.157Z,98154.28
2022-08-05T16:54:04.771Z,98148.22
2022-08-05T16:56:34.732Z,98155.69
2022-08-05T16:59:09.139Z,98164.53
2022-08-05T17:01:53.727Z,98165.50
2022-08-05T17:04:27.409Z,98163.72
2022-08-05T17:07:01.101Z,98170.75
2022-08-05T17:09:31.002Z,98178.16
2022-08-05T17:12:08.274Z,98184.66
2022-08-05T17:14:40.567Z,98177.38
2022-08-05T17:17:14.867Z,98178.06
2022-08-05T17:19:46.235Z,98174.28
2022-08-05T17:22:24.903Z,98168.72
2022-08-05T17:24:57.616Z,98173.84
2022-08-05T17:27:33.816Z,98181.34
2022-08-05T17:30:06.984Z,98178.66
2022-08-05T17:32:35.931Z,98177.44
2022-08-05T17:35:04.976Z,98189.25
2022-08-05T17:37:41.617Z,98187.78
2022-08-05T17:40:17.344Z,98197.38
2022-08-05T17:42:51.946Z,98190.66
2022-08-05T17:45:24.933Z,98198.78
2022-08-05T17:47:58.474Z,98201.94
2022-08-05T17:50:30.846Z,98200.13
2022-08-05T17:53:03.175Z,98207.97
2022-08-05T17:55:39.561Z,98211.31
2022-08-05T17:58:12.897Z,98217.06
2022-08-05T18:00:45.550Z,98239.72
2022-08-05T18:03:56.315Z,98233.44
2022-08-05T18:06:12.311Z,98232.88
2022-08-05T18:08:52.443Z,98247.63
2022-08-05T18:11:23.616Z,98252.56
2022-08-05T18:14:04.321Z,98247.00
2022-08-05T18:16:33.830Z,98260.34
2022-08-05T18:19:03.060Z,98260.31
2022-08-05T18:22:07.850Z,98273.22
2022-08-05T18:24:21.609Z,98279.16
2022-08-05T18:26:50.071Z,98280.31
2022-08-05T18:29:40.237Z,98280.94
2022-08-05T18:32:12.910Z,98274.94
2022-08-05T18:34:42.953Z,98283.41
2022-08-05T18:37:12.607Z,98288.88
2022-08-05T18:40:57.598Z,98307.59
2022-08-05T18:42:50.876Z,98299.75
2022-08-05T18:45:21.217Z,98315.84
2022-08-05T18:47:56.657Z,98325.47
2022-08-05T18:50:46.171Z,98339.53
2022-08-05T18:53:22.197Z,98348.88
2022-08-05T18:55:55.684Z,98345.56
2022-08-05T18:58:28.948Z,98355.34
2022-08-05T19:00:58.527Z,98366.41
2022-08-05T19:03:53.067Z,98362.88
2022-08-05T19:06:22.371Z,98361.75
2022-08-05T19:09:06.376Z,98361.78
2022-08-05T19:12:00.516Z,98370.66
2022-08-05T19:14:59.449Z,98371.34
2022-08-05T19:17:15.437Z,98367.06
2022-08-05T19:19:46.925Z,98377.47
2022-08-05T19:22:18.459Z,98380.59
2022-08-05T19:24:56.512Z,98387.09
2022-08-05T19:27:27.891Z,98393.59
2022-08-05T19:29:59.270Z,98393.16
2022-08-05T19:32:28.377Z,98387.66
2022-08-05T19:34:57.932Z,98387.13
2022-08-05T19:37:47.053Z,98399.56
2022-08-05T19:40:16.243Z,98415.84
2022-08-05T19:43:00.657Z,98431.84
2022-08-05T19:45:36.480Z,98440.50
2022-08-05T19:48:06.665Z,98440.03
2022-08-05T19:50:36.643Z,98431.81
2022-08-05T19:53:09.666Z,98416.63
2022-08-05T19:56:15.132Z,98434.44
2022-08-05T19:58:30.221Z,98443.91
2022-08-05T20:00:58.992Z,98458.47
2022-08-05T20:03:38.723Z,98456.91
2022-08-05T20:06:11.679Z,98475.34
2022-08-05T20:08:47.503Z,98449.38
2022-08-05T20:11:18.047Z,98473.38
2022-08-05T20:13:59.134Z,98465.84
2022-08-05T20:16:38.086Z,98465.66
2022-08-05T20:19:07.012Z,98478.84
2022-08-05T20:21:38.347Z,98473.47
2022-08-05T20:24:08.152Z,98492.66
2022-08-05T20:26:39.919Z,98505.28
2022-08-05T20:29:27.747Z,98489.94
2022-08-05T20:31:58.341Z,98467.81
2022-08-05T20:34:28.372Z,98479.91
2022-08-05T20:36:56.794Z,98501.19
2022-08-05T20:39:26.014Z,98489.97
2022-08-05T20:42:05.386Z,98491.13
2022-08-05T20:44:37.953Z,98499.88
2022-08-05T20:47:07.926Z,98513.59
2022-08-05T20:49:39.269Z,98521.53
2022-08-05T20:52:10.743Z,98523.69
2022-08-05T20:54:42.941Z,98522.00
2022-08-05T20:57:41.904Z,98521.84
2022-08-05T21:00:35.068Z,98516.72
2022-08-05T21:03:06.343Z,98532.22
2022-08-05T21:05:53.925Z,98531.19
2022-08-05T21:08:26.850Z,98534.00
2022-08-05T21:11:01.755Z,98544.03
2022-08-05T21:13:48.262Z,98548.28
2022-08-05T21:16:30.026Z,98562.28
2022-08-05T21:19:00.697Z,98563.84
2022-08-05T21:21:44.439Z,98562.03
2022-08-05T21:24:20.048Z,98573.22
2022-08-05T21:26:53.525Z,98574.88
2022-08-05T21:29:31.758Z,98580.81
2022-08-05T21:32:03.192Z,98598.63
2022-08-05T21:34:32.894Z,98606.84
2022-08-05T21:37:01.850Z,98610.13
2022-08-05T21:39:31.366Z,98609.31
2022-08-05T21:42:03.524Z,98610.78
2022-08-05T21:44:32.746Z,98612.06
2022-08-05T21:47:03.026Z,98611.91
2022-08-05T21:50:00.300Z,98615.34
2022-08-05T21:52:27.683Z,98615.06
2022-08-05T21:54:57.150Z,98611.91
2022-08-05T21:57:31.581Z,98605.41
2022-08-05T22:00:05.763Z,98611.00
2022-08-05T22:02:43.028Z,98605.38
2022-08-05T22:05:12.554Z,98604.47
2022-08-05T22:07:58.812Z,98609.22
2022-08-05T22:10:30.874Z,98617.75
2022-08-05T22:14:04.867Z,98625.66
2022-08-05T22:16:00.918Z,98623.63
2022-08-05T22:18:39.041Z,98631.25
2022-08-05T22:21:18.753Z,98634.47
2022-08-05T22:24:13.083Z,98636.44
2022-08-05T22:27:13.959Z,98648.56
2022-08-05T22:29:46.007Z,98644.75
2022-08-05T22:32:17.361Z,98663.31
2022-08-05T22:34:47.710Z,98666.94
2022-08-05T22:37:17.004Z,98665.59
2022-08-05T22:39:50.345Z,98666.56
2022-08-05T22:42:26.213Z,98671.16
2022-08-05T22:44:56.706Z,98681.97
2022-08-05T22:47:29.216Z,98695.31
2022-08-05T22:50:19.176Z,98691.16
2022-08-05T22:52:51.340Z,98701.97
2022-08-05T22:55:21.978Z,98700.34
2022-08-05T22:57:51.229Z,98698.81
2022-08-05T23:00:21.613Z,98709.47
2022-08-05T23:02:50.719Z,98715.03
2022-08-05T23:05:22.537Z,98713.22
2022-08-05T23:07:51.429Z,98718.28
2022-08-05T23:10:20.881Z,98715.66
2022-08-05T23:12:54.379Z,98724.81
2022-08-05T23:15:29.282Z,98724.81
2022-08-05T23:18:02.251Z,98719.47
2022-08-05T23:20:37.296Z,98719.75
2022-08-05T23:23:08.157Z,98719.22
2022-08-05T23:25:51.726Z,98731.66
2022-08-05T23:28:22.551Z,98733.09
2022-08-05T23:30:53.488Z,98745.44
2022-08-05T23:33:26.329Z,98751.81
2022-08-05T23:36:14.529Z,98746.69
2022-08-05T23:38:43.678Z,98746.16
2022-08-05T23:41:12.940Z,98754.06
2022-08-05T23:44:04.680Z,98753.63
2022-08-05T23:46:30.280Z,98754.78
2022-08-05T23:49:01.917Z,98754.22
2022-08-05T23:52:02.945Z,98751.88
2022-08-05T23:54:38.267Z,98757.41
2022-08-05T23:57:10.219Z,98749.13
